Luoyang, China
Current Conditions -  °F | °C
As of 2:00 PM on Thursday 23 Oct 2014 (Local Time) from ZHCC Reporting Station
Haze Haze  
Wind Chill: 75°   Ceiling: Unl
Heat Index: 75°   Visibility: 1.8mi
Dew Point: 57°   Wind: 11mph
Humidity: 53%   Direction: 180°S
Pressure: 29.97"   Gusts: NA
Location:  34.68°N, 112.47°E
Report Text: ZHCC 230600Z 18005MPS 150V210 3000 HZ NSC 24/14 Q1015 NOSIG
Loading
Personal Weather Stations






























Interactive Weather Map
Tropical Storm Tracking
New forecast layout! Learn more

10-Day Weather Forecast

Advertisements
Track Severe Weather on mobile